sensor_id;sensor_type;location;lat;lon;timestamp;noise_LAeq;noise_LA_min;noise_LA_max;noise_LA01;noise_LA95
47109;Laerm;32856;51.422;6.794;2023-04-19T00:01:19;48.57;42.93;51.97;;
47109;Laerm;32856;51.422;6.794;2023-04-19T00:03:48;47.17;43.19;54.34;;
47109;Laerm;32856;51.422;6.794;2023-04-19T00:06:16;54.31;43.63;62.31;;
47109;Laerm;32856;51.422;6.794;2023-04-19T00:08:43;51.26;44.65;60.16;;
47109;Laerm;32856;51.422;6.794;2023-04-19T00:11:10;48.93;44.59;53.20;;
47109;Laerm;32856;51.422;6.794;2023-04-19T00:13:39;48.01;43.86;53.36;;
47109;Laerm;32856;51.422;6.794;2023-04-19T00:16:07;49.43;44.47;55.11;;
47109;Laerm;32856;51.422;6.794;2023-04-19T00:18:34;51.88;45.20;58.02;;
47109;Laerm;32856;51.422;6.794;2023-04-19T00:21:04;47.87;43.54;53.07;;
47109;Laerm;32856;51.422;6.794;2023-04-19T00:23:31;51.10;46.66;55.30;;
47109;Laerm;32856;51.422;6.794;2023-04-19T00:26:01;51.71;45.86;57.48;;
47109;Laerm;32856;51.422;6.794;2023-04-19T00:28:28;50.02;44.97;55.07;;
47109;Laerm;32856;51.422;6.794;2023-04-19T00:30:57;49.58;45.69;54.64;;
47109;Laerm;32856;51.422;6.794;2023-04-19T00:33:24;50.15;45.39;54.99;;
47109;Laerm;32856;51.422;6.794;2023-04-19T00:35:51;50.17;45.94;55.60;;
47109;Laerm;32856;51.422;6.794;2023-04-19T00:38:19;50.13;46.23;53.46;;
47109;Laerm;32856;51.422;6.794;2023-04-19T00:40:46;50.50;46.07;54.75;;
47109;Laerm;32856;51.422;6.794;2023-04-19T00:43:15;54.29;45.80;73.72;;
47109;Laerm;32856;51.422;6.794;2023-04-19T00:45:43;48.81;44.83;53.64;;
47109;Laerm;32856;51.422;6.794;2023-04-19T00:48:12;48.59;43.29;53.32;;
47109;Laerm;32856;51.422;6.794;2023-04-19T00:50:40;55.84;43.04;75.84;;
47109;Laerm;32856;51.422;6.794;2023-04-19T00:53:08;52.66;47.81;58.26;;
47109;Laerm;32856;51.422;6.794;2023-04-19T00:55:36;52.66;46.59;57.79;;
47109;Laerm;32856;51.422;6.794;2023-04-19T00:58:04;52.23;45.66;68.01;;
47109;Laerm;32856;51.422;6.794;2023-04-19T01:00:32;50.43;44.39;61.65;;
47109;Laerm;32856;51.422;6.794;2023-04-19T01:02:59;50.09;45.07;60.90;;
47109;Laerm;32856;51.422;6.794;2023-04-19T01:05:28;52.01;45.60;62.51;;
47109;Laerm;32856;51.422;6.794;2023-04-19T01:07:56;52.02;44.39;60.11;;
47109;Laerm;32856;51.422;6.794;2023-04-19T01:10:23;51.08;46.52;59.80;;
47109;Laerm;32856;51.422;6.794;2023-04-19T01:12:51;56.63;45.94;71.52;;
47109;Laerm;32856;51.422;6.794;2023-04-19T01:15:18;56.20;45.54;72.03;;
47109;Laerm;32856;51.422;6.794;2023-04-19T01:17:46;50.47;45.51;61.12;;
47109;Laerm;32856;51.422;6.794;2023-04-19T01:20:13;52.70;45.66;69.28;;
47109;Laerm;32856;51.422;6.794;2023-04-19T01:22:42;50.67;45.66;56.26;;
47109;Laerm;32856;51.422;6.794;2023-04-19T01:25:09;55.53;46.97;63.05;;
47109;Laerm;32856;51.422;6.794;2023-04-19T01:27:37;50.74;44.83;58.62;;
47109;Laerm;32856;51.422;6.794;2023-04-19T01:30:05;56.88;45.94;76.17;;
47109;Laerm;32856;51.422;6.794;2023-04-19T01:32:33;50.15;44.54;60.08;;
47109;Laerm;32856;51.422;6.794;2023-04-19T01:35:00;50.85;45.48;59.88;;
47109;Laerm;32856;51.422;6.794;2023-04-19T01:37:27;51.45;45.89;62.90;;
47109;Laerm;32856;51.422;6.794;2023-04-19T01:39:56;51.49;46.33;65.24;;
47109;Laerm;32856;51.422;6.794;2023-04-19T01:42:23;53.89;48.43;66.99;;
47109;Laerm;32856;51.422;6.794;2023-04-19T01:44:51;51.11;45.48;64.93;;
47109;Laerm;32856;51.422;6.794;2023-04-19T01:47:19;51.62;46.13;64.83;;
47109;Laerm;32856;51.422;6.794;2023-04-19T01:49:46;55.07;44.35;74.17;;
47109;Laerm;32856;51.422;6.794;2023-04-19T01:52:13;55.11;44.07;74.12;;
47109;Laerm;32856;51.422;6.794;2023-04-19T01:54:41;52.03;45.80;70.00;;
47109;Laerm;32856;51.422;6.794;2023-04-19T01:57:10;50.58;45.30;61.38;;
47109;Laerm;32856;51.422;6.794;2023-04-19T01:59:37;52.37;45.91;62.33;;
47109;Laerm;32856;51.422;6.794;2023-04-19T02:02:05;49.71;44.31;60.77;;
47109;Laerm;32856;51.422;6.794;2023-04-19T02:04:33;50.02;44.83;59.21;;
47109;Laerm;32856;51.422;6.794;2023-04-19T02:07:00;51.11;46.06;60.99;;
47109;Laerm;32856;51.422;6.794;2023-04-19T02:09:27;49.87;43.58;58.68;;
47109;Laerm;32856;51.422;6.794;2023-04-19T02:11:55;55.86;45.60;71.59;;
47109;Laerm;32856;51.422;6.794;2023-04-19T02:14:24;56.64;46.30;74.34;;
47109;Laerm;32856;51.422;6.794;2023-04-19T02:16:51;50.62;46.38;60.50;;
47109;Laerm;32856;51.422;6.794;2023-04-19T02:19:18;53.25;46.20;69.19;;
47109;Laerm;32856;51.422;6.794;2023-04-19T02:21:46;50.16;44.58;57.21;;
47109;Laerm;32856;51.422;6.794;2023-04-19T02:24:13;55.28;47.44;71.12;;
47109;Laerm;32856;51.422;6.794;2023-04-19T02:26:40;51.66;47.26;58.59;;
47109;Laerm;32856;51.422;6.794;2023-04-19T02:29:08;56.42;48.37;74.88;;
47109;Laerm;32856;51.422;6.794;2023-04-19T02:31:36;56.84;48.16;75.26;;
47109;Laerm;32856;51.422;6.794;2023-04-19T02:34:04;55.31;47.22;72.44;;
47109;Laerm;32856;51.422;6.794;2023-04-19T02:36:31;55.86;47.30;73.49;;
47109;Laerm;32856;51.422;6.794;2023-04-19T02:38:59;55.15;47.26;74.92;;
47109;Laerm;32856;51.422;6.794;2023-04-19T02:41:26;51.95;47.34;58.72;;
47109;Laerm;32856;51.422;6.794;2023-04-19T02:43:53;62.12;48.77;78.47;;
47109;Laerm;32856;51.422;6.794;2023-04-19T02:46:21;57.60;48.34;76.11;;
47109;Laerm;32856;51.422;6.794;2023-04-19T02:48:50;60.45;49.97;74.86;;
47109;Laerm;32856;51.422;6.794;2023-04-19T02:51:17;60.12;49.93;74.96;;
47109;Laerm;32856;51.422;6.794;2023-04-19T02:53:44;58.99;50.60;74.80;;
47109;Laerm;32856;51.422;6.794;2023-04-19T02:56:11;57.65;50.23;72.64;;
47109;Laerm;32856;51.422;6.794;2023-04-19T02:58:39;56.86;51.09;68.68;;
47109;Laerm;32856;51.422;6.794;2023-04-19T03:01:06;60.49;50.30;75.90;;
47109;Laerm;32856;51.422;6.794;2023-04-19T03:03:33;59.61;51.82;75.62;;
47109;Laerm;32856;51.422;6.794;2023-04-19T03:06:02;57.61;53.12;71.79;;
47109;Laerm;32856;51.422;6.794;2023-04-19T03:08:30;61.09;53.34;78.75;;
47109;Laerm;32856;51.422;6.794;2023-04-19T03:10:57;55.59;52.23;59.86;;
47109;Laerm;32856;51.422;6.794;2023-04-19T03:13:24;57.37;53.93;64.05;;
47109;Laerm;32856;51.422;6.794;2023-04-19T03:15:52;61.42;54.02;74.42;;
47109;Laerm;32856;51.422;6.794;2023-04-19T03:18:19;60.15;53.00;73.36;;
47109;Laerm;32856;51.422;6.794;2023-04-19T03:20:46;58.06;54.62;61.46;;
47109;Laerm;32856;51.422;6.794;2023-04-19T03:23:15;59.12;54.27;73.16;;
47109;Laerm;32856;51.422;6.794;2023-04-19T03:25:42;58.67;54.20;72.67;;
47109;Laerm;32856;51.422;6.794;2023-04-19T03:28:09;62.34;55.18;76.44;;
47109;Laerm;32856;51.422;6.794;2023-04-19T03:30:37;59.18;54.92;74.46;;
47109;Laerm;32856;51.422;6.794;2023-04-19T03:33:04;61.10;53.95;75.61;;
47109;Laerm;32856;51.422;6.794;2023-04-19T03:35:32;61.28;53.15;76.06;;
47109;Laerm;32856;51.422;6.794;2023-04-19T03:37:59;59.46;53.31;74.48;;
47109;Laerm;32856;51.422;6.794;2023-04-19T03:40:29;59.87;51.93;75.17;;
47109;Laerm;32856;51.422;6.794;2023-04-19T03:42:56;61.84;53.38;76.97;;
47109;Laerm;32856;51.422;6.794;2023-04-19T03:45:23;63.42;53.71;80.81;;
47109;Laerm;32856;51.422;6.794;2023-04-19T03:47:51;63.57;53.59;75.06;;
47109;Laerm;32856;51.422;6.794;2023-04-19T03:50:19;61.44;53.48;74.56;;
47109;Laerm;32856;51.422;6.794;2023-04-19T03:52:46;60.40;53.08;75.72;;
47109;Laerm;32856;51.422;6.794;2023-04-19T03:55:13;61.04;52.87;76.89;;
47109;Laerm;32856;51.422;6.794;2023-04-19T03:57:42;61.21;53.22;73.88;;
47109;Laerm;32856;51.422;6.794;2023-04-19T04:00:10;62.65;53.90;79.16;;
47109;Laerm;32856;51.422;6.794;2023-04-19T04:02:38;62.96;53.90;77.18;;
47109;Laerm;32856;51.422;6.794;2023-04-19T04:05:06;61.02;54.38;74.50;;
47109;Laerm;32856;51.422;6.794;2023-04-19T04:07:33;61.60;54.38;74.55;;
47109;Laerm;32856;51.422;6.794;2023-04-19T04:10:00;59.90;54.29;74.25;;
47109;Laerm;32856;51.422;6.794;2023-04-19T04:12:28;61.15;55.23;75.25;;
47109;Laerm;32856;51.422;6.794;2023-04-19T04:14:57;64.69;54.24;82.06;;
47109;Laerm;32856;51.422;6.794;2023-04-19T04:17:24;62.86;54.68;77.64;;
47109;Laerm;32856;51.422;6.794;2023-04-19T04:19:52;64.69;55.08;84.42;;
47109;Laerm;32856;51.422;6.794;2023-04-19T04:22:19;64.56;55.48;78.96;;
47109;Laerm;32856;51.422;6.794;2023-04-19T04:24:46;64.52;54.78;80.67;;
47109;Laerm;32856;51.422;6.794;2023-04-19T04:27:14;64.20;54.70;76.86;;
47109;Laerm;32856;51.422;6.794;2023-04-19T04:29:45;60.83;54.34;72.04;;
47109;Laerm;32856;51.422;6.794;2023-04-19T04:32:14;64.58;55.29;75.20;;
47109;Laerm;32856;51.422;6.794;2023-04-19T04:34:43;64.30;54.56;77.65;;
47109;Laerm;32856;51.422;6.794;2023-04-19T04:37:10;64.76;54.80;81.23;;
47109;Laerm;32856;51.422;6.794;2023-04-19T04:39:38;65.08;55.29;80.18;;
47109;Laerm;32856;51.422;6.794;2023-04-19T04:42:06;64.11;55.12;78.96;;
47109;Laerm;32856;51.422;6.794;2023-04-19T04:44:34;65.95;55.33;79.60;;
47109;Laerm;32856;51.422;6.794;2023-04-19T04:47:01;64.88;56.19;75.03;;
47109;Laerm;32856;51.422;6.794;2023-04-19T04:49:30;63.73;54.97;79.31;;
47109;Laerm;32856;51.422;6.794;2023-04-19T04:51:57;62.69;55.20;74.32;;
47109;Laerm;32856;51.422;6.794;2023-04-19T04:54:25;65.09;56.02;75.50;;
47109;Laerm;32856;51.422;6.794;2023-04-19T04:56:52;65.25;55.96;77.74;;
47109;Laerm;32856;51.422;6.794;2023-04-19T04:59:20;64.06;56.61;77.84;;
47109;Laerm;32856;51.422;6.794;2023-04-19T05:01:52;63.20;54.07;75.82;;
47109;Laerm;32856;51.422;6.794;2023-04-19T05:04:19;64.99;56.30;83.81;;
47109;Laerm;32856;51.422;6.794;2023-04-19T05:06:48;64.28;55.86;76.08;;
47109;Laerm;32856;51.422;6.794;2023-04-19T05:09:15;65.09;55.33;77.71;;
47109;Laerm;32856;51.422;6.794;2023-04-19T05:11:42;63.72;56.47;75.70;;
47109;Laerm;32856;51.422;6.794;2023-04-19T05:14:10;64.20;56.81;75.11;;
47109;Laerm;32856;51.422;6.794;2023-04-19T05:16:38;64.26;55.22;78.06;;
47109;Laerm;32856;51.422;6.794;2023-04-19T05:19:06;65.70;55.93;77.77;;
47109;Laerm;32856;51.422;6.794;2023-04-19T05:21:33;64.30;56.64;74.85;;
47109;Laerm;32856;51.422;6.794;2023-04-19T05:24:02;65.16;56.04;78.88;;
47109;Laerm;32856;51.422;6.794;2023-04-19T05:26:29;65.62;54.78;77.30;;
47109;Laerm;32856;51.422;6.794;2023-04-19T05:28:57;63.43;55.62;75.29;;
47109;Laerm;32856;51.422;6.794;2023-04-19T05:31:24;65.08;55.41;78.05;;
47109;Laerm;32856;51.422;6.794;2023-04-19T05:33:52;64.65;55.72;76.03;;
47109;Laerm;32856;51.422;6.794;2023-04-19T05:36:19;65.94;56.16;75.46;;
47109;Laerm;32856;51.422;6.794;2023-04-19T05:38:47;69.14;58.03;82.08;;
47109;Laerm;32856;51.422;6.794;2023-04-19T05:41:16;67.18;56.50;79.36;;
47109;Laerm;32856;51.422;6.794;2023-04-19T05:43:43;66.15;56.41;77.17;;
47109;Laerm;32856;51.422;6.794;2023-04-19T05:46:11;64.64;55.55;75.33;;
47109;Laerm;32856;51.422;6.794;2023-04-19T05:48:38;65.72;55.12;77.39;;
47109;Laerm;32856;51.422;6.794;2023-04-19T05:51:06;66.71;55.79;77.15;;
47109;Laerm;32856;51.422;6.794;2023-04-19T05:53:33;69.34;56.59;84.54;;
47109;Laerm;32856;51.422;6.794;2023-04-19T05:56:00;67.76;55.18;82.62;;
47109;Laerm;32856;51.422;6.794;2023-04-19T05:58:29;70.02;55.39;88.80;;
47109;Laerm;32856;51.422;6.794;2023-04-19T06:00:57;65.51;55.55;77.10;;
47109;Laerm;32856;51.422;6.794;2023-04-19T06:03:24;64.74;54.79;78.14;;
47109;Laerm;32856;51.422;6.794;2023-04-19T06:05:53;65.95;55.24;76.28;;
47109;Laerm;32856;51.422;6.794;2023-04-19T06:08:22;66.30;56.67;78.85;;
47109;Laerm;32856;51.422;6.794;2023-04-19T06:10:49;64.68;55.08;75.29;;
47109;Laerm;32856;51.422;6.794;2023-04-19T06:13:22;64.90;53.58;75.96;;
47109;Laerm;32856;51.422;6.794;2023-04-19T06:15:50;64.80;53.48;79.86;;
47109;Laerm;32856;51.422;6.794;2023-04-19T06:18:18;66.77;54.74;79.51;;
47109;Laerm;32856;51.422;6.794;2023-04-19T06:20:45;64.17;53.40;77.14;;
47109;Laerm;32856;51.422;6.794;2023-04-19T06:23:13;65.14;56.02;74.77;;
47109;Laerm;32856;51.422;6.794;2023-04-19T06:25:40;63.19;54.83;75.38;;
47109;Laerm;32856;51.422;6.794;2023-04-19T06:28:08;65.66;55.35;77.26;;
47109;Laerm;32856;51.422;6.794;2023-04-19T06:30:36;65.19;53.84;80.68;;
47109;Laerm;32856;51.422;6.794;2023-04-19T06:33:04;65.57;55.63;75.49;;
47109;Laerm;32856;51.422;6.794;2023-04-19T06:35:32;64.33;54.94;80.82;;
47109;Laerm;32856;51.422;6.794;2023-04-19T06:37:59;66.29;55.33;76.02;;
47109;Laerm;32856;51.422;6.794;2023-04-19T06:40:26;65.53;54.51;76.74;;
47109;Laerm;32856;51.422;6.794;2023-04-19T06:42:54;64.45;55.25;76.65;;
47109;Laerm;32856;51.422;6.794;2023-04-19T06:45:21;66.39;56.02;82.44;;
47109;Laerm;32856;51.422;6.794;2023-04-19T06:47:49;66.40;55.40;78.23;;
47109;Laerm;32856;51.422;6.794;2023-04-19T06:50:18;64.80;54.02;74.16;;
47109;Laerm;32856;51.422;6.794;2023-04-19T06:52:45;63.66;54.52;74.78;;
47109;Laerm;32856;51.422;6.794;2023-04-19T06:55:13;63.79;54.25;80.43;;
47109;Laerm;32856;51.422;6.794;2023-04-19T06:57:40;64.54;54.02;74.87;;
47109;Laerm;32856;51.422;6.794;2023-04-19T07:00:09;67.11;54.23;80.68;;
47109;Laerm;32856;51.422;6.794;2023-04-19T07:02:37;66.60;54.94;77.79;;
47109;Laerm;32856;51.422;6.794;2023-04-19T07:05:05;64.95;54.81;79.94;;
47109;Laerm;32856;51.422;6.794;2023-04-19T07:07:34;65.40;55.72;76.09;;
47109;Laerm;32856;51.422;6.794;2023-04-19T07:10:03;61.73;54.73;72.63;;
47109;Laerm;32856;51.422;6.794;2023-04-19T07:12:30;62.52;53.92;74.47;;
47109;Laerm;32856;51.422;6.794;2023-04-19T07:14:58;63.68;54.41;76.90;;
47109;Laerm;32856;51.422;6.794;2023-04-19T07:17:25;66.42;54.89;81.52;;
47109;Laerm;32856;51.422;6.794;2023-04-19T07:19:53;63.25;54.93;74.02;;
47109;Laerm;32856;51.422;6.794;2023-04-19T07:22:20;65.64;55.63;84.36;;
47109;Laerm;32856;51.422;6.794;2023-04-19T07:24:49;62.91;55.26;76.39;;
47109;Laerm;32856;51.422;6.794;2023-04-19T07:27:17;66.28;57.20;78.74;;
47109;Laerm;32856;51.422;6.794;2023-04-19T07:29:44;65.64;54.43;75.70;;
47109;Laerm;32856;51.422;6.794;2023-04-19T07:32:12;64.66;54.51;75.96;;
47109;Laerm;32856;51.422;6.794;2023-04-19T07:34:40;62.96;53.91;72.89;;
47109;Laerm;32856;51.422;6.794;2023-04-19T07:37:08;66.36;54.48;80.28;;
47109;Laerm;32856;51.422;6.794;2023-04-19T07:39:36;65.68;56.33;76.51;;
47109;Laerm;32856;51.422;6.794;2023-04-19T07:42:05;65.03;54.93;77.13;;
47109;Laerm;32856;51.422;6.794;2023-04-19T07:44:32;65.76;55.83;80.24;;
47109;Laerm;32856;51.422;6.794;2023-04-19T07:46:59;65.29;55.08;77.69;;
47109;Laerm;32856;51.422;6.794;2023-04-19T07:49:27;64.92;54.72;75.50;;
47109;Laerm;32856;51.422;6.794;2023-04-19T07:51:58;63.97;55.69;73.95;;
47109;Laerm;32856;51.422;6.794;2023-04-19T07:54:27;66.81;56.17;77.74;;
47109;Laerm;32856;51.422;6.794;2023-04-19T07:56:55;65.40;54.74;81.90;;
47109;Laerm;32856;51.422;6.794;2023-04-19T07:59:25;65.44;55.03;74.38;;
47109;Laerm;32856;51.422;6.794;2023-04-19T08:01:52;64.84;54.89;74.91;;
47109;Laerm;32856;51.422;6.794;2023-04-19T08:04:20;67.47;56.45;81.29;;
47109;Laerm;32856;51.422;6.794;2023-04-19T08:06:48;63.02;54.13;77.60;;
47109;Laerm;32856;51.422;6.794;2023-04-19T08:09:15;65.13;54.61;79.44;;
47109;Laerm;32856;51.422;6.794;2023-04-19T08:11:43;64.90;54.20;77.33;;
47109;Laerm;32856;51.422;6.794;2023-04-19T08:14:11;65.98;57.60;81.98;;
47109;Laerm;32856;51.422;6.794;2023-04-19T08:16:57;64.24;56.09;76.33;;
47109;Laerm;32856;51.422;6.794;2023-04-19T08:19:27;66.76;55.31;86.24;;
47109;Laerm;32856;51.422;6.794;2023-04-19T08:21:54;68.67;56.28;83.37;;
47109;Laerm;32856;51.422;6.794;2023-04-19T08:24:22;63.43;55.25;74.78;;
47109;Laerm;32856;51.422;6.794;2023-04-19T08:26:49;65.70;54.82;78.21;;
47109;Laerm;32856;51.422;6.794;2023-04-19T08:29:19;63.65;55.44;75.25;;
47109;Laerm;32856;51.422;6.794;2023-04-19T08:31:47;64.72;56.41;76.42;;
47109;Laerm;32856;51.422;6.794;2023-04-19T08:34:15;65.13;53.54;79.96;;
47109;Laerm;32856;51.422;6.794;2023-04-19T08:36:43;64.91;54.01;79.34;;
47109;Laerm;32856;51.422;6.794;2023-04-19T08:39:21;64.30;55.65;76.65;;
47109;Laerm;32856;51.422;6.794;2023-04-19T08:41:58;66.26;55.82;80.46;;
47109;Laerm;32856;51.422;6.794;2023-04-19T08:44:34;62.98;55.19;76.32;;
47109;Laerm;32856;51.422;6.794;2023-04-19T08:47:10;63.37;55.78;73.90;;
47109;Laerm;32856;51.422;6.794;2023-04-19T08:49:46;64.20;55.65;74.56;;
47109;Laerm;32856;51.422;6.794;2023-04-19T08:52:24;61.90;55.33;74.09;;
47109;Laerm;32856;51.422;6.794;2023-04-19T08:54:53;68.33;55.09;81.76;;
47109;Laerm;32856;51.422;6.794;2023-04-19T08:57:21;63.60;54.18;82.33;;
47109;Laerm;32856;51.422;6.794;2023-04-19T08:59:48;64.40;55.24;74.72;;
47109;Laerm;32856;51.422;6.794;2023-04-19T09:02:20;66.10;56.97;81.66;;
47109;Laerm;32856;51.422;6.794;2023-04-19T09:04:49;65.60;55.85;76.83;;
47109;Laerm;32856;51.422;6.794;2023-04-19T09:07:24;64.44;55.46;77.89;;
47109;Laerm;32856;51.422;6.794;2023-04-19T09:10:04;63.69;53.60;79.40;;
47109;Laerm;32856;51.422;6.794;2023-04-19T09:12:32;64.99;54.35;79.04;;
47109;Laerm;32856;51.422;6.794;2023-04-19T09:15:00;65.55;54.81;80.38;;
47109;Laerm;32856;51.422;6.794;2023-04-19T09:17:29;63.16;55.44;73.52;;
47109;Laerm;32856;51.422;6.794;2023-04-19T09:19:58;64.97;54.85;76.07;;
47109;Laerm;32856;51.422;6.794;2023-04-19T09:22:26;65.82;56.27;81.38;;
47109;Laerm;32856;51.422;6.794;2023-04-19T09:24:53;64.28;55.08;74.35;;
47109;Laerm;32856;51.422;6.794;2023-04-19T09:27:27;64.73;54.49;75.85;;
47109;Laerm;32856;51.422;6.794;2023-04-19T09:29:55;64.81;55.66;75.50;;
47109;Laerm;32856;51.422;6.794;2023-04-19T09:32:23;66.07;54.43;83.86;;
47109;Laerm;32856;51.422;6.794;2023-04-19T09:34:52;63.85;53.83;78.38;;
47109;Laerm;32856;51.422;6.794;2023-04-19T09:37:21;65.38;56.74;77.04;;
47109;Laerm;32856;51.422;6.794;2023-04-19T09:40:20;64.09;54.72;76.52;;
47109;Laerm;32856;51.422;6.794;2023-04-19T09:42:47;65.88;54.08;76.99;;
47109;Laerm;32856;51.422;6.794;2023-04-19T09:45:18;65.63;56.29;75.90;;
47109;Laerm;32856;51.422;6.794;2023-04-19T09:48:02;65.22;53.77;81.69;;
47109;Laerm;32856;51.422;6.794;2023-04-19T09:50:30;63.85;55.16;76.53;;
47109;Laerm;32856;51.422;6.794;2023-04-19T09:53:02;68.85;56.09;84.94;;
47109;Laerm;32856;51.422;6.794;2023-04-19T09:55:29;64.25;54.64;75.29;;
47109;Laerm;32856;51.422;6.794;2023-04-19T09:58:06;66.34;55.88;85.51;;
47109;Laerm;32856;51.422;6.794;2023-04-19T10:00:34;64.96;55.53;78.07;;
47109;Laerm;32856;51.422;6.794;2023-04-19T10:03:13;65.50;54.77;79.91;;
47109;Laerm;32856;51.422;6.794;2023-04-19T10:05:41;63.88;54.41;74.39;;
47109;Laerm;32856;51.422;6.794;2023-04-19T10:08:11;65.27;53.63;79.24;;
47109;Laerm;32856;51.422;6.794;2023-04-19T10:10:39;64.13;54.63;77.91;;
47109;Laerm;32856;51.422;6.794;2023-04-19T10:13:09;64.66;54.53;76.17;;
47109;Laerm;32856;51.422;6.794;2023-04-19T10:15:45;66.64;54.95;81.61;;
47109;Laerm;32856;51.422;6.794;2023-04-19T10:18:18;65.02;55.31;78.38;;
47109;Laerm;32856;51.422;6.794;2023-04-19T10:20:48;65.65;56.78;79.38;;
47109;Laerm;32856;51.422;6.794;2023-04-19T10:23:18;64.80;56.58;76.30;;
47109;Laerm;32856;51.422;6.794;2023-04-19T10:25:46;64.98;54.34;79.62;;
47109;Laerm;32856;51.422;6.794;2023-04-19T10:28:14;65.38;55.48;76.81;;
47109;Laerm;32856;51.422;6.794;2023-04-19T10:30:52;66.51;54.63;76.64;;
47109;Laerm;32856;51.422;6.794;2023-04-19T10:33:23;63.07;55.24;75.67;;
47109;Laerm;32856;51.422;6.794;2023-04-19T10:35:50;65.50;54.93;78.02;;
47109;Laerm;32856;51.422;6.794;2023-04-19T10:38:27;64.84;54.40;78.64;;
47109;Laerm;32856;51.422;6.794;2023-04-19T10:41:01;64.49;53.87;77.07;;
47109;Laerm;32856;51.422;6.794;2023-04-19T10:43:29;63.89;52.56;83.72;;
47109;Laerm;32856;51.422;6.794;2023-04-19T10:45:58;63.98;53.35;81.18;;
47109;Laerm;32856;51.422;6.794;2023-04-19T10:48:36;63.75;54.43;75.85;;
47109;Laerm;32856;51.422;6.794;2023-04-19T10:51:04;64.67;54.61;75.09;;
47109;Laerm;32856;51.422;6.794;2023-04-19T10:53:47;65.52;55.12;80.16;;
47109;Laerm;32856;51.422;6.794;2023-04-19T10:56:16;67.91;56.12;84.88;;
47109;Laerm;32856;51.422;6.794;2023-04-19T11:01:33;64.24;53.87;75.16;;
47109;Laerm;32856;51.422;6.794;2023-04-19T11:04:02;65.01;54.12;76.28;;
47109;Laerm;32856;51.422;6.794;2023-04-19T11:06:30;65.26;53.66;78.58;;
47109;Laerm;32856;51.422;6.794;2023-04-19T11:08:59;63.86;54.21;76.12;;
47109;Laerm;32856;51.422;6.794;2023-04-19T11:11:28;64.33;53.06;75.65;;
47109;Laerm;32856;51.422;6.794;2023-04-19T11:13:55;62.95;53.20;73.93;;
47109;Laerm;32856;51.422;6.794;2023-04-19T11:16:23;63.81;53.77;76.56;;
47109;Laerm;32856;51.422;6.794;2023-04-19T11:19:03;67.13;55.06;85.35;;
47109;Laerm;32856;51.422;6.794;2023-04-19T11:21:30;62.81;53.93;73.71;;
47109;Laerm;32856;51.422;6.794;2023-04-19T11:24:06;64.96;52.60;79.64;;
47109;Laerm;32856;51.422;6.794;2023-04-19T11:26:34;64.42;52.81;77.44;;
47109;Laerm;32856;51.422;6.794;2023-04-19T11:29:01;65.41;54.35;75.71;;
47109;Laerm;32856;51.422;6.794;2023-04-19T11:31:31;65.08;53.73;80.68;;
47109;Laerm;32856;51.422;6.794;2023-04-19T11:33:58;65.59;53.83;79.67;;
47109;Laerm;32856;51.422;6.794;2023-04-19T11:36:26;64.24;55.20;77.22;;
47109;Laerm;32856;51.422;6.794;2023-04-19T11:38:53;64.66;55.04;77.71;;
47109;Laerm;32856;51.422;6.794;2023-04-19T11:41:22;64.72;53.12;76.07;;
47109;Laerm;32856;51.422;6.794;2023-04-19T11:43:49;62.76;54.52;74.70;;
47109;Laerm;32856;51.422;6.794;2023-04-19T11:46:16;64.11;53.79;79.55;;
47109;Laerm;32856;51.422;6.794;2023-04-19T11:48:50;65.30;54.57;77.18;;
47109;Laerm;32856;51.422;6.794;2023-04-19T11:51:18;64.87;54.76;76.98;;
47109;Laerm;32856;51.422;6.794;2023-04-19T11:53:46;66.52;56.49;78.15;;
47109;Laerm;32856;51.422;6.794;2023-04-19T11:56:13;68.01;56.69;80.33;;
47109;Laerm;32856;51.422;6.794;2023-04-19T11:58:43;64.50;54.15;75.49;;
47109;Laerm;32856;51.422;6.794;2023-04-19T12:01:14;64.92;55.96;79.90;;
47109;Laerm;32856;51.422;6.794;2023-04-19T12:03:44;66.39;53.88;80.18;;
47109;Laerm;32856;51.422;6.794;2023-04-19T12:06:13;64.45;53.74;80.96;;
47109;Laerm;32856;51.422;6.794;2023-04-19T12:08:42;65.80;52.31;78.70;;
47109;Laerm;32856;51.422;6.794;2023-04-19T12:11:09;62.76;53.84;80.98;;
47109;Laerm;32856;51.422;6.794;2023-04-19T12:13:37;65.89;54.23;78.15;;
47109;Laerm;32856;51.422;6.794;2023-04-19T12:16:07;66.68;53.35;80.09;;
47109;Laerm;32856;51.422;6.794;2023-04-19T12:18:41;65.77;55.54;75.85;;
47109;Laerm;32856;51.422;6.794;2023-04-19T12:21:10;65.02;54.20;77.69;;
47109;Laerm;32856;51.422;6.794;2023-04-19T12:23:38;68.72;53.88;86.19;;
47109;Laerm;32856;51.422;6.794;2023-04-19T12:26:05;65.27;54.38;76.50;;
47109;Laerm;32856;51.422;6.794;2023-04-19T12:28:33;63.52;53.93;73.84;;
47109;Laerm;32856;51.422;6.794;2023-04-19T12:31:00;64.32;54.04;74.41;;
47109;Laerm;32856;51.422;6.794;2023-04-19T12:33:30;63.58;54.83;74.31;;
47109;Laerm;32856;51.422;6.794;2023-04-19T12:35:57;66.66;52.92;85.29;;
47109;Laerm;32856;51.422;6.794;2023-04-19T12:38:25;64.10;53.54;75.38;;
47109;Laerm;32856;51.422;6.794;2023-04-19T12:40:52;64.67;51.04;76.56;;
47109;Laerm;32856;51.422;6.794;2023-04-19T12:43:20;65.35;51.13;80.09;;
47109;Laerm;32856;51.422;6.794;2023-04-19T12:45:47;64.23;53.33;74.27;;
47109;Laerm;32856;51.422;6.794;2023-04-19T12:48:14;66.16;53.16;78.49;;
47109;Laerm;32856;51.422;6.794;2023-04-19T12:50:43;67.37;54.31;80.38;;
47109;Laerm;32856;51.422;6.794;2023-04-19T12:53:10;65.97;53.22;75.74;;
47109;Laerm;32856;51.422;6.794;2023-04-19T12:55:38;64.57;51.91;77.04;;
47109;Laerm;32856;51.422;6.794;2023-04-19T12:58:05;64.41;53.33;76.48;;
47109;Laerm;32856;51.422;6.794;2023-04-19T13:00:33;65.19;52.85;81.54;;
47109;Laerm;32856;51.422;6.794;2023-04-19T13:03:00;64.10;51.30;75.56;;
47109;Laerm;32856;51.422;6.794;2023-04-19T13:05:28;63.41;50.73;73.52;;
47109;Laerm;32856;51.422;6.794;2023-04-19T13:07:57;66.59;52.62;80.34;;
47109;Laerm;32856;51.422;6.794;2023-04-19T13:10:25;65.31;51.95;74.86;;
47109;Laerm;32856;51.422;6.794;2023-04-19T13:12:52;65.79;51.59;77.65;;
47109;Laerm;32856;51.422;6.794;2023-04-19T13:15:20;66.50;52.75;79.74;;
47109;Laerm;32856;51.422;6.794;2023-04-19T13:17:47;65.82;52.95;78.75;;
47109;Laerm;32856;51.422;6.794;2023-04-19T13:20:15;64.01;53.19;81.13;;
47109;Laerm;32856;51.422;6.794;2023-04-19T13:22:43;67.82;54.16;77.42;;
47109;Laerm;32856;51.422;6.794;2023-04-19T13:25:11;67.54;52.88;77.35;;
47109;Laerm;32856;51.422;6.794;2023-04-19T13:27:39;64.43;51.99;76.60;;
47109;Laerm;32856;51.422;6.794;2023-04-19T13:30:07;64.28;50.51;73.66;;
47109;Laerm;32856;51.422;6.794;2023-04-19T13:32:34;65.33;52.36;75.71;;
47109;Laerm;32856;51.422;6.794;2023-04-19T13:35:01;68.20;52.12;83.78;;
47109;Laerm;32856;51.422;6.794;2023-04-19T13:37:29;66.38;50.89;77.24;;
47109;Laerm;32856;51.422;6.794;2023-04-19T13:39:56;64.37;52.41;76.28;;
47109;Laerm;32856;51.422;6.794;2023-04-19T13:42:37;63.99;50.89;76.12;;
47109;Laerm;32856;51.422;6.794;2023-04-19T13:45:05;64.66;52.41;78.16;;
47109;Laerm;32856;51.422;6.794;2023-04-19T13:47:32;68.65;52.61;81.17;;
47109;Laerm;32856;51.422;6.794;2023-04-19T13:50:00;65.43;51.59;77.51;;
47109;Laerm;32856;51.422;6.794;2023-04-19T13:52:27;66.22;51.44;78.50;;
47109;Laerm;32856;51.422;6.794;2023-04-19T13:54:54;67.59;52.09;76.79;;